Timeline UpdatesTrip UpdatesNews PostsPvt PostsTravel TipsAdmin PostsConv PostsFollowed PostsChat RequestsBlog PostsPNR Posts

Disclaimer
Search
 
 
Sun Apr 20, 2014 20:03:35 ISTHomeTrainsΣChainsAtlasPNRForumGalleryNewsFAQTripsMembersLoginFeedback
No Recent News for this Train
Other Trains in the News **new
Latest...
.
Tue Sep 17, 2013 (05:07PM)
⇐ Return Journey: Train# 37927

37926/Katwa-Howrah Local

Sep 17 2013 (5:06PM)
Change Departure Station:
Change Arrival Station:
Post a Train Travel TipPost a Train Travel Tip **new
Post a Comment/Question/Picture/VideoPost a Comment/Question/Picture/Video
Pantry/Catering
✕ NO Pantry Car
✕ NO Catering
RSA - Rake Sharing
Rake/Coach Composition
Loco
News    PNR    Forum    Time-Table    Availability    Fare Chart    Map    Arr/Dep History    Trips    Gallery    ΣChains    X/O    Timeline    
Travel Time: 1h 3m    14 halts    Distance: 37 km    Avg Speed: 35 km/hr
Type: EMU - Kolkata
Zone: ER/Eastern
Departs @ 17:45 (Avg 14m late)
Platform# ???
SMTWTFS
Hooghly/HGY 
Arrives @ 18:48 (Avg 8m late)
Platform# ???
SMTWTFS
Kolkata Howrah Junction/HWH 

14 halts. 16 intermediate Stations between Hooghly and Kolkata Howrah Junction

Show ALL intermediate Stations  Show Old Time-Table

#CodeStation NameX/OArrivesAvgDepartsAvgHaltPFDay#KmSpeedElevZoneAddress
1KWAEKatwa Junction (5)  -15:00+6--1-106.96821mERDist - Bardhaman, West Bengal
2DHAEDainhat (4)  15:06+1015:07+121m--1-100.110219mERDaihaat Rd, West Bengal
3SHBASahebtala  15:09+1615:10+161m--1-96.71918mERSahebtala, West Bengal
4AGAEAgradwip (2)  15:19+1215:20+131m--1-93.99818mERDist - Bardhaman, West Bengal
5PTAEPatuli (2)  15:23+1415:24+151m--1-89.07518mERDist - bardhaman, West Bengal
6BQYBelerhat  15:28+1515:29+151m--1-84.08219mERJajneswarpur, West Bengal
7LKXLakshmipur (2)  15:31+1515:32+161m--1-81.39414mERDist - burdhaman, West Bengal
8MTFAMertala Phaleya  15:34+1815:35+181m--1-78.19216mERMertala Phaleya, West Bengal
9PSAEPurbasthali (2)  15:37+1915:38+201m--1-75.17019mERDist - Bardhaman, West Bengal
10BFZBhandartikuri  15:40+2115:41+241m--1-72.810321mERDist - Bardhaman, West Bengal
11VSPRBishnupriya (1)  15:43-15:44-1m--1-69.33015mERDist - nadia, West Bengal
12NDAENabadwip Dham (3)  15:48+2415:50+252m--1-67.42515mERDist - Nadia, West Bengal
13KLNTKalinagar (1)  16:00+2016:01+221m11-63.2749mERDist - Nadia, West Bengal
14SMAESamudra Garh  16:04+2516:05+271m--1-59.57316mERDist - Bardhaman, West Bengal
15NDIMNandaigram Halt  16:08-16:09-1m--1-55.91014mERState Highway 6, West Bengal
16DTAEDhatrigram  16:28+1416:29+151m--1-52.89116mERDhatrigram, West Bengal
17BGRABaghnapara (2)  16:32+1716:33+171m--1-48.24916mERKalna-Memari Rd, West Bengal
18ABKAAmbika Kalna (4)  16:38+1816:39+181m--1-44.18512mERKalna, West Bengal
19GPAEGuptipara  16:44+1916:45+191m--1-37.06314mERGuptipara Railway Station, West Bengal
20BHLABehula  16:47+1916:48+191m--1-34.97316mERDist - Hooghly, West Bengal
21SOAESomra Bazar (2)  16:52+1916:53+191m--1-30.18613mERState Highway 6, West Bengal
22BGAEBalagarh  16:55+1816:56+181m--1-27.21913mERBalagarh, West Bengal
23JITJirat (3)  17:03+1717:04+171m--1-25.012617mERdist - hooghly, West Bengal
24KMAEKhamargachhi  17:07+1917:08+191m--1-18.75914mERKhamargachi, West Bengal
25DMLEDumurdaha  17:10+1917:11+191m--1-16.79815mERDumurdahadham, West Bengal
26KJUKuntighat  17:13+2117:14+211m--1-13.56717mERKuntighat Railway Station, West Bengal
27TBAETribeni  17:17+2017:18+201m--1-10.17416mERTribeni, West Bengal
28BSAEBansh Baria  17:21+2217:22+221m--1-6.41413mERBansberia, West Bengal
29BDCBandel Junction (7)  17:41+1117:43+132m--1-2.011814mERdist - HOOGHLY, West Bengal
30HGY»Hooghly (3)»  17:44+1417:45+141m--10.05414mERDist - Hooghly, West Bengal
31CNSChuchura (3)  17:47+1517:48+151m--11.89015mERDist - HOOGHLY - 712102, West Bengal
32CGRChandan Nagar (3)  17:50+1517:51+151m--14.87116mERDist -HOOGHLY - 712136, West Bengal
33MUUMankundu (3)  17:53+1517:54+151m--17.213313mERChandannagar, West Bengal
34BHRBhadreshwar (3)  17:55+1517:56+151m--19.45614mERBhadreswar, West Bengal
35BBAEBaidyabati (3)  18:00+1418:01+141m--113.12813mERBaidyabati, West Bengal
36SHESeoraphuli Junction (6)  18:06+1418:07+141m--115.47613mERBaidyabati, West Bengal
37SRPSerampore (4)  18:09+1418:10+141m--118.06411mERdist - hooghly, West Bengal
38RISRishra (3)  18:13+1418:14+141m--121.24211mERRishra, West Bengal
39KOGKonnagar (3)  18:18+1318:19+141m--124.011510mERDist: Howrah, West Bengal
40HMZHind Motor (3)  18:20+1318:21+131m--125.9549mERHindmotor, West Bengal
41UPAUttarpara (3)  18:23+1318:24+131m--127.7749mERDist - Hooghly, West Bengal
42BLYBally (6)  18:25+1318:26+131m--129.01218mERDist - Howrah, West Bengal
43BEQBelur (5)  18:27+1318:28+131m--131.0508mERHowrah, West Bengal
44LLHLiluah (5)  18:30+1318:31+131m--132.61610mERHowrah, West Bengal
45HWH•Kolkata Howrah Junction (23)•  18:48+8---137.2-10mERHowrah 711101, West Bengal
Scroll to Top
Scroll to Bottom